Time;durP1;ratioP1;P1;durP2;ratioP2;P2;SDS_P1;SDS_P2;PMS_P1;PMS_P2;Temp;Humidity;BMP_temperature;BMP_pressure;BME280_temperature;BME280_humidity;BME280_pressure;Samples;Min_cycle;Max_cycle;Signal;HPM_P1;HPM_P2
2022/12/16 00:01:24;;;;;;;108.90;45.07;;;;;;;-7.49;85.09;100650.72;5113503;28;20425;-64
2022/12/16 00:03:53;;;;;;;108.20;44.00;;;;;;;-7.60;84.47;100644.63;5114035;28;20425;-64
2022/12/16 00:06:23;;;;;;;109.13;45.53;;;;;;;-7.54;86.13;100643.75;5113438;28;20537;-64
2022/12/16 00:08:49;;;;;;;126.07;47.83;;;;;;;-7.62;85.43;100650.69;5113728;28;20426;-64
2022/12/16 00:11:18;;;;;;;115.27;48.53;;;;;;;-7.57;85.51;100656.75;5114011;28;20437;-64
2022/12/16 00:13:46;;;;;;;130.30;52.20;;;;;;;-7.67;85.30;100660.22;5113380;28;20436;-64
2022/12/16 00:16:14;;;;;;;122.00;45.97;;;;;;;-7.73;84.70;100656.75;5113293;28;20457;-64
2022/12/16 00:18:41;;;;;;;104.90;43.77;;;;;;;-7.79;85.38;100661.06;5113317;28;20478;-64
2022/12/16 00:21:08;;;;;;;113.83;45.63;;;;;;;-7.90;85.28;100661.06;5113277;28;20457;-64
2022/12/16 00:23:35;;;;;;;106.57;45.27;;;;;;;-7.88;84.83;100655.84;5113308;28;20516;-64
2022/12/16 00:26:02;;;;;;;118.93;46.97;;;;;;;-7.87;85.10;100655.00;5113334;28;20437;-64
2022/12/16 00:28:28;;;;;;;121.60;49.60;;;;;;;-7.87;85.16;100650.66;5113269;28;20436;-64
2022/12/16 00:30:55;;;;;;;123.50;51.87;;;;;;;-7.80;86.07;100657.63;5113534;28;20433;-64
2022/12/16 00:33:25;;;;;;;127.23;49.37;;;;;;;-7.76;86.05;100655.88;5113233;28;20436;-64
2022/12/16 00:35:51;;;;;;;122.83;50.77;;;;;;;-7.76;84.82;100656.72;5113153;28;20457;-64
2022/12/16 00:38:19;;;;;;;124.57;50.40;;;;;;;-7.76;85.50;100648.94;5117367;28;20449;-64
2022/12/16 00:40:45;;;;;;;134.43;49.87;;;;;;;-7.67;85.28;100657.63;5117548;28;20425;-64
2022/12/16 00:43:12;;;;;;;128.10;49.97;;;;;;;-7.70;85.33;100661.09;5117541;28;20434;-64
2022/12/16 00:45:38;;;;;;;137.80;52.00;;;;;;;-7.67;84.71;100665.44;5116827;28;20985;-64
2022/12/16 00:48:06;;;;;;;103.27;46.73;;;;;;;-7.68;86.18;100669.75;5117099;28;20436;-64
2022/12/16 00:50:33;;;;;;;129.43;53.73;;;;;;;-7.72;84.61;100663.69;5116819;28;20428;-64
2022/12/16 00:52:59;;;;;;;118.40;49.60;;;;;;;-7.75;86.21;100658.47;5117361;28;20517;-64
2022/12/16 00:55:26;;;;;;;122.17;48.93;;;;;;;-7.72;84.63;100662.81;5116752;28;20472;-64
2022/12/16 00:57:52;;;;;;;101.90;44.60;;;;;;;-7.73;86.08;100658.50;5116934;28;20425;-64
2022/12/16 01:00:21;;;;;;;120.03;47.20;;;;;;;-7.75;85.56;100661.09;5116599;28;20482;-64
2022/12/16 01:02:49;;;;;;;124.17;47.63;;;;;;;-7.77;85.80;100667.16;5116597;28;20526;-64
2022/12/16 01:05:19;;;;;;;113.73;44.90;;;;;;;-7.75;85.18;100661.09;5116989;28;20446;-64
2022/12/16 01:07:46;;;;;;;120.97;49.57;;;;;;;-7.74;85.86;100668.00;5116782;28;20429;-64
2022/12/16 01:10:13;;;;;;;118.17;50.63;;;;;;;-7.73;85.91;100664.56;5116421;28;20433;-64
2022/12/16 01:12:40;;;;;;;120.37;48.53;;;;;;;-7.74;84.70;100665.41;5116384;28;20426;-64
2022/12/16 01:15:07;;;;;;;118.87;49.07;;;;;;;-7.75;86.07;100665.41;5116185;28;20448;-64
2022/12/16 01:17:37;;;;;;;123.67;47.73;;;;;;;-7.77;85.37;100674.94;5116536;28;20435;-64
2022/12/16 01:20:04;;;;;;;124.30;48.80;;;;;;;-7.78;85.76;100670.59;5116224;28;20436;-64
2022/12/16 01:22:31;;;;;;;117.13;49.30;;;;;;;-7.79;86.14;100667.13;5116040;28;20449;-64
2022/12/16 01:24:59;;;;;;;126.10;50.07;;;;;;;-7.78;86.12;100676.69;5116095;28;20445;-64
2022/12/16 01:27:26;;;;;;;112.30;48.43;;;;;;;-7.81;84.94;100683.59;5116359;28;20479;-64
2022/12/16 01:29:52;;;;;;;116.50;49.83;;;;;;;-7.92;84.89;100679.25;5116328;28;20795;-64
2022/12/16 01:32:21;;;;;;;96.33;43.97;;;;;;;-7.97;84.79;100680.09;5115975;28;20524;-64
2022/12/16 01:34:51;;;;;;;105.90;45.30;;;;;;;-7.99;85.87;100687.88;5115929;28;20830;-64
2022/12/16 01:37:22;;;;;;;119.83;46.07;;;;;;;-7.97;84.25;100693.09;5115872;28;20536;-64
2022/12/16 01:39:49;;;;;;;126.67;47.87;;;;;;;-7.99;85.04;100690.47;5116188;28;20426;-64
2022/12/16 01:42:19;;;;;;;119.90;50.57;;;;;;;-7.99;84.96;100700.00;5115821;28;20532;-64
2022/12/16 01:44:48;;;;;;;132.87;48.60;;;;;;;-7.98;84.73;100700.00;5115741;28;20459;-64
2022/12/16 01:47:17;;;;;;;114.00;46.83;;;;;;;-7.98;84.81;100700.00;5116288;28;20422;-64
2022/12/16 01:49:59;;;;;;;122.83;48.03;;;;;;;-7.97;84.64;100701.75;5115404;28;20421;-64
2022/12/16 01:52:30;;;;;;;135.63;52.67;;;;;;;-7.93;84.66;100705.22;5116205;28;20409;-64
2022/12/16 01:55:02;;;;;;;120.40;48.17;;;;;;;-7.94;84.15;100703.50;5115945;28;20450;-65
2022/12/16 01:57:41;;;;;;;120.10;50.20;;;;;;;-7.94;85.18;100708.69;5115744;28;20803;-65
2022/12/16 02:00:09;;;;;;;115.50;47.90;;;;;;;-7.94;85.36;100713.88;5116060;28;20414;-65
2022/12/16 02:02:40;;;;;;;124.00;48.20;;;;;;;-7.97;85.31;100711.28;5115966;28;20413;-65
2022/12/16 02:05:19;;;;;;;127.57;47.77;;;;;;;-7.98;85.65;100706.94;5115274;28;20861;-65
2022/12/16 02:08:09;;;;;;;119.17;46.00;;;;;;;-8.00;85.32;100706.91;5115645;28;20458;-64
2022/12/16 02:10:42;;;;;;;136.87;49.00;;;;;;;-7.96;85.25;100711.25;5097007;28;20418;-64
2022/12/16 02:13:39;;;;;;;122.60;46.40;;;;;;;-8.03;85.36;100706.03;5115590;28;20434;-64
2022/12/16 02:16:33;;;;;;;120.97;45.40;;;;;;;-8.05;84.79;100705.16;5115313;28;20469;-64
2022/12/16 02:19:27;;;;;;;116.30;45.73;;;;;;;-7.97;85.45;100708.69;5115113;28;20412;-64
2022/12/16 02:22:32;;;;;;;125.13;48.43;;;;;;;-7.97;84.68;100709.53;5115068;28;20441;-64
2022/12/16 02:25:26;;;;;;;126.40;49.03;;;;;;;-8.00;85.01;100706.91;5115255;28;20459;-64
2022/12/16 02:28:21;;;;;;;106.83;44.90;;;;;;;-8.00;85.41;100706.91;5114917;28;20432;-64
2022/12/16 02:31:15;;;;;;;111.73;46.07;;;;;;;-7.96;84.85;100713.84;5115170;28;20414;-64
2022/12/16 02:34:03;;;;;;;107.63;45.83;;;;;;;-7.91;85.64;100711.28;5115103;28;20409;-64
2022/12/16 02:36:58;;;;;;;115.07;44.83;;;;;;;-7.86;85.54;100713.91;5114590;28;20989;-64
2022/12/16 02:39:32;;;;;;;116.47;45.07;;;;;;;-7.83;85.79;100708.69;5114990;28;20406;-64
2022/12/16 02:42:06;;;;;;;95.33;43.20;;;;;;;-7.81;84.87;100709.56;5115198;28;20410;-64
2022/12/16 02:44:51;;;;;;;111.93;45.80;;;;;;;-7.85;84.78;100708.72;5114562;28;20527;-65
2022/12/16 02:47:17;;;;;;;115.77;49.73;;;;;;;-7.87;84.97;100713.03;5115087;28;20410;-64
2022/12/16 02:49:47;;;;;;;112.53;42.90;;;;;;;-7.83;85.02;100706.97;5114766;28;20776;-64
2022/12/16 02:52:17;;;;;;;112.53;47.87;;;;;;;-7.86;85.49;100706.97;5114451;28;20429;-64
2022/12/16 02:54:44;;;;;;;109.40;43.40;;;;;;;-7.85;85.13;100719.09;5114764;28;20449;-65
2022/12/16 02:57:22;;;;;;;117.50;46.53;;;;;;;-7.88;84.56;100713.88;5114565;28;20494;-64
2022/12/16 03:00:05;;;;;;;121.87;47.17;;;;;;;-7.99;84.93;100710.41;5113945;28;20414;-64
2022/12/16 03:02:56;;;;;;;114.80;45.43;;;;;;;-7.97;84.79;100721.66;5114533;28;20836;-64
2022/12/16 03:05:33;;;;;;;112.33;45.83;;;;;;;-7.97;85.38;100716.47;5114153;28;20485;-65
2022/12/16 03:08:04;;;;;;;112.53;45.67;;;;;;;-8.03;85.05;100716.44;5114437;28;20409;-64
2022/12/16 03:10:40;;;;;;;109.30;44.00;;;;;;;-8.01;85.12;100725.97;5114173;28;20410;-64
2022/12/16 03:13:09;;;;;;;116.00;46.03;;;;;;;-8.01;85.22;100718.19;5114408;28;20875;-64
2022/12/16 03:15:37;;;;;;;102.57;45.77;;;;;;;-8.03;84.69;100726.84;5114697;28;20953;-64
2022/12/16 03:18:07;;;;;;;107.07;44.97;;;;;;;-8.09;85.13;100722.50;5114569;28;20429;-64
2022/12/16 03:20:39;;;;;;;102.00;42.03;;;;;;;-8.12;84.57;100719.84;5114245;28;20447;-64
2022/12/16 03:23:11;;;;;;;108.07;43.70;;;;;;;-8.15;85.12;100720.72;5114563;28;20416;-64
2022/12/16 03:25:41;;;;;;;104.40;42.50;;;;;;;-8.15;84.84;100720.72;5113984;28;20977;-64
2022/12/16 03:28:31;;;;;;;99.20;42.40;;;;;;;-8.18;84.69;100719.84;5114205;28;20876;-64
2022/12/16 03:31:11;;;;;;;110.90;43.40;;;;;;;-8.15;84.49;100725.03;5114209;28;20416;-64
2022/12/16 03:33:44;;;;;;;119.83;46.17;;;;;;;-8.16;85.29;100734.56;5114415;28;20406;-64
2022/12/16 03:36:22;;;;;;;97.57;43.10;;;;;;;-8.09;84.37;100737.19;5113811;28;20465;-65
2022/12/16 03:38:50;;;;;;;116.50;43.90;;;;;;;-8.16;85.23;100737.19;5114030;28;20783;-65
2022/12/16 03:41:19;;;;;;;102.57;41.50;;;;;;;-8.17;84.48;100743.22;5113705;28;20437;-64
2022/12/16 03:43:47;;;;;;;96.83;44.03;;;;;;;-8.17;84.46;100739.75;5113712;28;20429;-64
2022/12/16 03:46:15;;;;;;;111.00;46.47;;;;;;;-8.19;84.63;100739.75;5113632;28;20811;-64
2022/12/16 03:48:47;;;;;;;100.40;44.63;;;;;;;-8.15;84.39;100745.81;5113980;28;20425;-64
2022/12/16 03:51:14;;;;;;;120.47;45.40;;;;;;;-8.12;85.19;100753.63;5113912;28;20413;-64
2022/12/16 03:53:41;;;;;;;106.13;43.80;;;;;;;-8.15;84.61;100753.63;5113644;28;20422;-64
2022/12/16 03:56:07;;;;;;;114.73;42.47;;;;;;;-8.13;85.14;100746.72;5113420;28;20462;-64
2022/12/16 03:58:34;;;;;;;101.13;40.10;;;;;;;-8.14;84.51;100745.84;5113575;28;20434;-64
2022/12/16 04:01:00;;;;;;;101.87;42.00;;;;;;;-8.17;84.02;100750.16;5113781;28;20434;-64
2022/12/16 04:03:26;;;;;;;91.50;41.27;;;;;;;-8.41;84.06;100745.72;5114012;28;20433;-64
2022/12/16 04:05:53;;;;;;;108.47;44.70;;;;;;;-8.50;84.97;100746.53;5113703;28;20453;-65
2022/12/16 04:08:19;;;;;;;106.03;43.10;;;;;;;-8.44;84.80;100738.78;5113455;28;20425;-64
2022/12/16 04:24:34;;;;;;;100.43;40.37;;;;;;;-8.49;83.94;100743.09;5117241;28;20449;-65
2022/12/16 04:34:24;;;;;;;99.23;41.40;;;;;;;-8.44;83.97;100756.97;5117532;28;20429;-64
